createdAt,value
2023-04-03T00:02:20.706Z,70.55
2023-04-03T00:12:25.060Z,71.89
2023-04-03T00:22:29.735Z,71.98
2023-04-03T00:32:34.404Z,72.45
2023-04-03T00:42:38.398Z,71.18
2023-04-03T00:52:43.172Z,70.78
2023-04-03T01:02:47.103Z,71.20
2023-04-03T01:12:54.405Z,70.54
2023-04-03T01:23:08.768Z,71.86
2023-04-03T01:33:13.308Z,71.17
2023-04-03T01:43:17.144Z,72.19
2023-04-03T01:53:21.621Z,73.21
2023-04-03T02:03:25.334Z,73.62
2023-04-03T02:13:29.897Z,72.92
2023-04-03T02:23:33.004Z,73.43
2023-04-03T02:33:38.222Z,73.51
2023-04-03T02:43:44.284Z,74.32
2023-04-03T02:53:48.598Z,74.83
2023-04-03T03:03:56.418Z,75.12
2023-04-03T03:14:00.931Z,75.53
2023-04-03T03:24:04.082Z,76.60
2023-04-03T03:34:08.483Z,76.83
2023-04-03T03:44:11.680Z,77.21
2023-04-03T03:54:16.442Z,76.15
2023-04-03T04:04:20.015Z,75.68
2023-04-03T04:14:24.877Z,74.63
2023-04-03T04:24:28.908Z,73.00
2023-04-03T04:34:34.656Z,72.55
2023-04-03T04:44:38.527Z,72.43
2023-04-03T04:54:43.174Z,72.19
2023-04-03T05:04:46.980Z,71.52
2023-04-03T05:14:57.656Z,72.33
2023-04-03T05:25:02.787Z,71.80
2023-04-03T05:35:08.666Z,71.16
2023-04-03T05:45:14.190Z,71.53
2023-04-03T05:55:18.972Z,63.81
2023-04-03T06:05:22.103Z,66.27
2023-04-03T06:15:26.524Z,67.30
2023-04-03T06:25:29.577Z,66.07
2023-04-03T06:35:36.172Z,65.38
2023-04-03T06:45:39.535Z,63.38
2023-04-03T06:55:45.080Z,62.95
2023-04-03T07:05:48.254Z,61.34
2023-04-03T07:15:52.843Z,60.48
2023-04-03T07:25:56.425Z,59.57
2023-04-03T07:36:01.564Z,59.01
2023-04-03T07:46:07.571Z,58.80
2023-04-03T07:56:13.203Z,58.61
2023-04-03T08:06:18.568Z,57.74
2023-04-03T08:16:26.801Z,55.97
2023-04-03T08:26:30.267Z,55.69
2023-04-03T08:36:35.647Z,56.26
2023-04-03T08:46:49.409Z,54.02
2023-04-03T08:56:54.052Z,53.77
2023-04-03T09:07:04.159Z,54.09
2023-04-03T09:17:16.519Z,53.82
2023-04-03T09:27:19.665Z,50.86
2023-04-03T09:37:39.953Z,50.09
2023-04-03T09:47:45.232Z,49.91
2023-04-03T09:57:53.669Z,48.14
2023-04-03T10:08:10.748Z,49.11
2023-04-03T10:18:31.698Z,46.09
2023-04-03T10:28:40.983Z,44.03
2023-04-03T10:38:55.708Z,40.97
2023-04-03T10:49:11.157Z,38.93
2023-04-03T11:11:28.448Z,38.05
2023-04-03T11:21:36.940Z,37.57
2023-04-03T11:31:59.991Z,37.04
2023-04-03T11:42:18.758Z,37.71
2023-04-03T11:52:59.047Z,37.60
2023-04-03T12:03:03.685Z,36.09
2023-04-03T12:13:18.140Z,35.95
2023-04-03T12:23:32.557Z,34.56
2023-04-03T12:33:49.076Z,31.04
2023-04-03T12:44:08.927Z,30.55
2023-04-03T12:54:17.559Z,30.45
2023-04-03T13:04:23.182Z,30.28
2023-04-03T13:14:29.437Z,31.10
2023-04-03T13:24:37.689Z,32.30
2023-04-03T13:34:46.560Z,32.11
2023-04-03T13:45:08.215Z,33.11
2023-04-03T13:55:37.503Z,33.31
2023-04-03T14:05:42.138Z,33.61
2023-04-03T14:15:45.665Z,33.76
2023-04-03T14:25:50.677Z,34.34
2023-04-03T14:35:55.690Z,34.06
2023-04-03T14:46:01.785Z,34.84
2023-04-03T14:56:07.176Z,33.37
2023-04-03T15:06:15.041Z,35.03
2023-04-03T15:16:20.937Z,34.15
2023-04-03T15:26:25.415Z,34.63
2023-04-03T15:36:34.164Z,35.51
2023-04-03T15:46:39.511Z,35.06
2023-04-03T15:56:43.075Z,35.41
2023-04-03T16:06:49.526Z,35.61
2023-04-03T16:16:54.477Z,35.37
2023-04-03T16:26:58.763Z,36.21
2023-04-03T16:37:02.157Z,35.84
2023-04-03T16:47:08.479Z,35.31
2023-04-03T16:57:11.625Z,36.22
2023-04-03T17:07:16.042Z,36.08
2023-04-03T17:17:23.550Z,37.35
2023-04-03T17:27:28.742Z,36.70
2023-04-03T17:37:33.711Z,37.00
2023-04-03T17:47:38.159Z,37.38
2023-04-03T17:57:41.614Z,38.00
2023-04-03T18:07:46.283Z,38.57
2023-04-03T18:17:51.360Z,38.38
2023-04-03T18:27:57.951Z,38.71
2023-04-03T18:38:01.448Z,39.09
2023-04-03T18:48:06.413Z,40.48
2023-04-03T18:58:10.254Z,40.85
2023-04-03T19:08:15.250Z,41.50
2023-04-03T19:18:18.184Z,42.47
2023-04-03T19:28:22.765Z,42.41
2023-04-03T19:38:26.285Z,43.54
2023-04-03T19:48:30.888Z,43.53
2023-04-03T19:58:34.257Z,44.00
2023-04-03T20:08:38.580Z,43.75
2023-04-03T20:18:42.504Z,44.44
2023-04-03T20:28:46.778Z,44.51
2023-04-03T20:38:52.239Z,45.08
2023-04-03T20:48:58.125Z,45.07
2023-04-03T20:59:02.543Z,45.25
2023-04-03T21:09:42.914Z,45.36
2023-04-03T21:19:48.715Z,45.80
2023-04-03T21:29:53.068Z,45.48
2023-04-03T21:39:57.829Z,46.00
2023-04-03T21:50:01.465Z,46.09
2023-04-03T22:00:11.315Z,46.41
2023-04-03T22:10:15.759Z,46.36
2023-04-03T22:20:20.847Z,46.79
2023-04-03T22:30:24.156Z,48.20
2023-04-03T22:40:28.629Z,47.63
2023-04-03T22:50:32.014Z,47.84
2023-04-03T23:00:36.438Z,51.18
2023-04-03T23:10:42.305Z,52.33
2023-04-03T23:20:46.432Z,50.52
2023-04-03T23:30:49.341Z,52.20
2023-04-03T23:40:53.564Z,50.76
2023-04-03T23:50:56.939Z,52.88
